Time;durP1;ratioP1;P1;durP2;ratioP2;P2;SDS_P1;SDS_P2;PMS_P1;PMS_P2;Temp;Humidity;BMP_temperature;BMP_pressure;BME280_temperature;BME280_humidity;BME280_pressure;Samples;Min_cycle;Max_cycle;Signal;HPM_P1;HPM_P2
2023/05/31 00:02:58;;;;;;;5.07;2.05;;;;;;;;;;4951968;29;20094;-81
2023/05/31 00:05:24;;;;;;;6.80;2.22;;;;;;;;;;4937252;29;20429;-81
2023/05/31 00:07:49;;;;;;;6.15;2.30;;;;;;;;;;4952236;28;20042;-82
2023/05/31 00:10:15;;;;;;;4.13;1.92;;;;;;;;;;4940614;28;20028;-81
2023/05/31 00:12:41;;;;;;;6.55;2.17;;;;;;;;;;4956110;28;20062;-82
2023/05/31 00:15:06;;;;;;;5.30;1.90;;;;;;;;;;4955427;28;20050;-81
2023/05/31 00:17:32;;;;;;;7.00;2.03;;;;;;;;;;4973308;28;20031;-82
2023/05/31 00:19:57;;;;;;;5.93;2.10;;;;;;;;;;4939868;28;20090;-82
2023/05/31 00:22:23;;;;;;;7.50;2.85;;;;;;;;;;4941583;28;20039;-81
2023/05/31 00:24:48;;;;;;;7.38;2.45;;;;;;;;;;4974246;28;20019;-82
2023/05/31 00:27:14;;;;;;;9.27;2.30;;;;;;;;;;4977332;28;20438;-82
2023/05/31 00:29:39;;;;;;;5.25;2.08;;;;;;;;;;4955645;28;20447;-81
2023/05/31 00:32:05;;;;;;;8.13;2.58;;;;;;;;;;4976698;28;20381;-81
2023/05/31 00:34:31;;;;;;;5.25;2.42;;;;;;;;;;4976746;28;20373;-82
2023/05/31 00:36:57;;;;;;;7.45;2.33;;;;;;;;;;4959461;28;20035;-81
2023/05/31 00:39:23;;;;;;;7.15;2.25;;;;;;;;;;4976716;28;20391;-81
2023/05/31 00:41:48;;;;;;;7.78;2.42;;;;;;;;;;4958986;28;20042;-82
2023/05/31 00:44:14;;;;;;;6.85;2.10;;;;;;;;;;4976498;28;20027;-81
2023/05/31 00:46:40;;;;;;;4.38;2.00;;;;;;;;;;4959074;28;20081;-81
2023/05/31 00:49:06;;;;;;;4.85;1.90;;;;;;;;;;4976447;28;20031;-83
2023/05/31 00:51:32;;;;;;;5.95;2.22;;;;;;;;;;4959038;28;20038;-81
2023/05/31 00:53:59;;;;;;;7.65;2.33;;;;;;;;;;4977001;28;20033;-82
2023/05/31 00:56:25;;;;;;;7.10;2.88;;;;;;;;;;4961457;28;20499;-81
2023/05/31 00:58:52;;;;;;;4.88;2.17;;;;;;;;;;4959777;28;20023;-81
2023/05/31 01:01:20;;;;;;;5.45;2.13;;;;;;;;;;4966266;28;20044;-81
2023/05/31 01:03:46;;;;;;;7.20;2.25;;;;;;;;;;4996383;28;20093;-82
2023/05/31 01:06:11;;;;;;;5.82;2.25;;;;;;;;;;4996897;28;20376;-81
2023/05/31 01:08:37;;;;;;;6.72;2.08;;;;;;;;;;4978972;28;20030;-80
2023/05/31 01:11:26;;;;;;;8.27;2.58;;;;;;;;;;4978254;28;20462;-81
2023/05/31 01:13:56;;;;;;;4.95;1.80;;;;;;;;;;4946787;28;20093;-82
2023/05/31 01:16:26;;;;;;;6.63;2.00;;;;;;;;;;5011092;28;20025;-81
2023/05/31 01:19:00;;;;;;;5.40;1.90;;;;;;;;;;4978607;28;20030;-82
2023/05/31 01:21:32;;;;;;;8.40;2.05;;;;;;;;;;4979581;28;20041;-81
2023/05/31 01:24:17;;;;;;;6.47;2.00;;;;;;;;;;4982686;28;20099;-82
2023/05/31 01:26:44;;;;;;;5.97;2.10;;;;;;;;;;4976982;28;20042;-78
2023/05/31 01:29:13;;;;;;;6.53;2.08;;;;;;;;;;4990944;28;20049;-81
2023/05/31 01:31:39;;;;;;;4.63;2.00;;;;;;;;;;4984556;28;20026;-81
2023/05/31 01:34:05;;;;;;;5.20;2.00;;;;;;;;;;4974830;28;20127;-80
2023/05/31 01:36:31;;;;;;;10.20;2.20;;;;;;;;;;4983687;28;20046;-81
2023/05/31 01:38:56;;;;;;;5.05;1.90;;;;;;;;;;4996224;28;20029;-82
2023/05/31 01:41:24;;;;;;;5.80;2.13;;;;;;;;;;4977411;28;20077;-82
2023/05/31 01:43:50;;;;;;;4.85;2.05;;;;;;;;;;4977509;28;20026;-82
2023/05/31 01:46:17;;;;;;;8.90;2.42;;;;;;;;;;4977584;28;20027;-82
2023/05/31 01:48:43;;;;;;;8.45;2.65;;;;;;;;;;4977464;28;20109;-82
2023/05/31 01:51:10;;;;;;;6.20;2.30;;;;;;;;;;4977768;28;20501;-82
2023/05/31 01:53:35;;;;;;;6.55;2.60;;;;;;;;;;4994935;28;20403;-82
2023/05/31 01:56:01;;;;;;;3.92;1.75;;;;;;;;;;4977497;28;20026;-82
2023/05/31 01:58:28;;;;;;;8.10;2.20;;;;;;;;;;4954878;29;20348;-81
2023/05/31 02:00:55;;;;;;;4.68;2.10;;;;;;;;;;4965603;28;20490;-84
2023/05/31 02:03:21;;;;;;;5.93;2.08;;;;;;;;;;4961019;28;20039;-82
2023/05/31 02:05:56;;;;;;;5.47;2.20;;;;;;;;;;4977671;28;20027;-81
2023/05/31 02:08:22;;;;;;;9.80;2.40;;;;;;;;;;4977330;28;20046;-82
2023/05/31 02:10:48;;;;;;;14.15;2.70;;;;;;;;;;4977358;28;20116;-82
2023/05/31 02:13:13;;;;;;;5.85;2.05;;;;;;;;;;4971472;28;20079;-81
2023/05/31 02:15:41;;;;;;;6.63;2.22;;;;;;;;;;4972218;28;20065;-82
2023/05/31 02:18:07;;;;;;;7.95;2.20;;;;;;;;;;4982191;28;20042;-83
2023/05/31 02:20:33;;;;;;;5.57;2.17;;;;;;;;;;4985778;28;20050;-82
2023/05/31 02:23:00;;;;;;;6.25;2.60;;;;;;;;;;5003083;28;20109;-83
2023/05/31 02:25:26;;;;;;;9.20;2.50;;;;;;;;;;4970677;28;20034;-82
2023/05/31 02:27:51;;;;;;;9.27;2.22;;;;;;;;;;4985581;28;20030;-81
2023/05/31 02:30:17;;;;;;;6.93;2.30;;;;;;;;;;5003469;28;20546;-82
2023/05/31 02:32:43;;;;;;;5.53;2.13;;;;;;;;;;4997984;28;20117;-82
2023/05/31 02:35:09;;;;;;;8.07;2.13;;;;;;;;;;4994064;28;20427;-83
2023/05/31 02:37:36;;;;;;;4.60;2.10;;;;;;;;;;4972075;28;20177;-82
2023/05/31 02:40:07;;;;;;;4.75;2.20;;;;;;;;;;4984896;28;20023;-82
2023/05/31 02:42:33;;;;;;;4.60;2.13;;;;;;;;;;4976555;28;20037;-81
2023/05/31 02:44:58;;;;;;;8.25;2.67;;;;;;;;;;4975968;28;20026;-82
2023/05/31 02:47:24;;;;;;;9.45;3.08;;;;;;;;;;4994143;28;20065;-82
2023/05/31 02:49:49;;;;;;;7.68;2.20;;;;;;;;;;4977253;28;20030;-82
2023/05/31 02:52:15;;;;;;;9.00;2.45;;;;;;;;;;4960453;28;20038;-83
2023/05/31 02:55:05;;;;;;;10.48;2.28;;;;;;;;;;4961072;28;20495;-82
2023/05/31 02:57:36;;;;;;;8.80;2.30;;;;;;;;;;4945635;28;20038;-82
2023/05/31 03:00:13;;;;;;;6.60;2.08;;;;;;;;;;4960198;28;20026;-82
2023/05/31 03:02:39;;;;;;;5.97;2.42;;;;;;;;;;4976682;28;20035;-81
2023/05/31 03:05:20;;;;;;;5.90;1.98;;;;;;;;;;4946951;28;20038;-82
2023/05/31 03:07:46;;;;;;;8.10;2.55;;;;;;;;;;4976136;28;20495;-82
2023/05/31 03:10:12;;;;;;;6.03;2.05;;;;;;;;;;4976157;28;20073;-82
2023/05/31 03:12:37;;;;;;;6.60;2.60;;;;;;;;;;4976187;28;20069;-82
2023/05/31 03:15:04;;;;;;;6.75;2.85;;;;;;;;;;4942385;28;20121;-83
2023/05/31 03:17:31;;;;;;;7.38;2.45;;;;;;;;;;4976165;28;20041;-81
2023/05/31 03:19:57;;;;;;;5.18;2.47;;;;;;;;;;4976302;28;20105;-82
2023/05/31 03:22:23;;;;;;;5.78;2.40;;;;;;;;;;4959938;28;20475;-82
2023/05/31 03:24:48;;;;;;;7.72;2.38;;;;;;;;;;4960045;28;20030;-81
2023/05/31 03:27:16;;;;;;;10.00;2.40;;;;;;;;;;4976363;28;20065;-82
2023/05/31 03:29:42;;;;;;;8.00;3.08;;;;;;;;;;4976739;28;20026;-82
2023/05/31 03:32:07;;;;;;;5.15;2.08;;;;;;;;;;4960556;28;20380;-82
2023/05/31 03:34:34;;;;;;;8.85;2.53;;;;;;;;;;4977814;28;20038;-81
2023/05/31 03:37:00;;;;;;;7.15;3.03;;;;;;;;;;4976665;28;20041;-82
2023/05/31 03:39:37;;;;;;;7.65;2.58;;;;;;;;;;4976277;28;20038;-83
2023/05/31 03:42:05;;;;;;;8.15;3.38;;;;;;;;;;4948343;28;20058;-83
2023/05/31 03:44:31;;;;;;;8.05;3.20;;;;;;;;;;4938579;29;20019;-82
2023/05/31 03:46:57;;;;;;;6.32;2.33;;;;;;;;;;4965116;28;20034;-82
2023/05/31 03:49:22;;;;;;;8.65;2.67;;;;;;;;;;4978765;28;20022;-82
2023/05/31 03:51:48;;;;;;;11.98;2.70;;;;;;;;;;4979628;28;20033;-81
2023/05/31 03:54:13;;;;;;;6.60;2.60;;;;;;;;;;4963263;28;20057;-83
2023/05/31 03:56:39;;;;;;;6.95;2.70;;;;;;;;;;4973289;28;20034;-81
2023/05/31 03:59:05;;;;;;;8.00;3.13;;;;;;;;;;4985611;28;20026;-81
2023/05/31 04:01:32;;;;;;;7.15;2.60;;;;;;;;;;4956411;28;20099;-82
2023/05/31 04:03:58;;;;;;;10.90;3.00;;;;;;;;;;4958718;28;20039;-82
2023/05/31 04:06:23;;;;;;;11.68;2.63;;;;;;;;;;4941936;28;20030;-83
2023/05/31 04:08:49;;;;;;;6.85;2.40;;;;;;;;;;4940663;28;20062;-82
2023/05/31 04:11:15;;;;;;;5.70;2.20;;;;;;;;;;4940509;28;20126;-83
2023/05/31 04:13:41;;;;;;;7.00;2.83;;;;;;;;;;4937951;29;20070;-83
2023/05/31 04:16:07;;;;;;;9.20;2.90;;;;;;;;;;4954235;28;20027;-83
2023/05/31 04:18:32;;;;;;;7.03;3.03;;;;;;;;;;4945362;28;20130;-83
2023/05/31 04:20:58;;;;;;;11.38;2.60;;;;;;;;;;4956542;28;20081;-81
2023/05/31 04:23:23;;;;;;;9.15;2.85;;;;;;;;;;4941743;28;20031;-82
2023/05/31 04:25:50;;;;;;;9.60;2.50;;;;;;;;;;4927810;28;20550;-81
2023/05/31 04:28:18;;;;;;;13.13;4.30;;;;;;;;;;4960170;28;20027;-81
2023/05/31 04:30:45;;;;;;;7.82;3.10;;;;;;;;;;4959085;28;20038;-82
2023/05/31 04:33:11;;;;;;;10.18;2.65;;;;;;;;;;4944161;28;20034;-82
2023/05/31 04:35:37;;;;;;;7.63;2.83;;;;;;;;;;4944885;28;20508;-80
2023/05/31 04:38:03;;;;;;;9.23;3.10;;;;;;;;;;4944213;28;20055;-82
2023/05/31 04:40:32;;;;;;;6.82;2.83;;;;;;;;;;4945414;28;20608;-82
2023/05/31 04:43:05;;;;;;;7.22;3.17;;;;;;;;;;4953619;28;20039;-83
2023/05/31 04:45:33;;;;;;;6.82;2.63;;;;;;;;;;4931995;28;20408;-83
2023/05/31 04:47:59;;;;;;;9.80;2.70;;;;;;;;;;4937484;28;20035;-82
2023/05/31 04:50:25;;;;;;;6.43;2.38;;;;;;;;;;4924669;28;20031;-84
2023/05/31 04:52:52;;;;;;;8.55;2.65;;;;;;;;;;4924849;28;20652;-83
2023/05/31 04:55:21;;;;;;;7.25;2.40;;;;;;;;;;4939991;28;20035;-82
2023/05/31 04:57:47;;;;;;;8.02;2.33;;;;;;;;;;4918316;29;20040;-84
2023/05/31 05:00:15;;;;;;;7.80;2.47;;;;;;;;;;4926113;28;20102;-82
2023/05/31 05:02:53;;;;;;;7.82;2.22;;;;;;;;;;4963130;28;20042;-83
2023/05/31 05:05:19;;;;;;;9.75;2.70;;;;;;;;;;4977495;28;20031;-83
2023/05/31 05:07:45;;;;;;;8.20;2.83;;;;;;;;;;4979472;28;20116;-84
2023/05/31 05:10:11;;;;;;;6.03;2.50;;;;;;;;;;4982763;28;20039;-83
2023/05/31 05:12:36;;;;;;;10.57;2.38;;;;;;;;;;4967775;28;20045;-82
2023/05/31 05:15:02;;;;;;;9.52;3.05;;;;;;;;;;4968309;28;20037;-83
2023/05/31 05:17:28;;;;;;;14.77;3.53;;;;;;;;;;4984125;28;20502;-81
2023/05/31 05:19:54;;;;;;;8.50;3.72;;;;;;;;;;4970264;28;20030;-81
2023/05/31 05:22:20;;;;;;;8.75;2.45;;;;;;;;;;4970687;28;20084;-82
2023/05/31 05:24:46;;;;;;;6.88;2.25;;;;;;;;;;4987598;28;20125;-82
2023/05/31 05:27:13;;;;;;;9.35;2.45;;;;;;;;;;4971238;28;20253;-81
2023/05/31 05:29:39;;;;;;;10.00;2.67;;;;;;;;;;4948289;29;20035;-82
2023/05/31 05:32:06;;;;;;;8.40;2.58;;;;;;;;;;4982430;28;20117;-83
2023/05/31 05:34:32;;;;;;;6.40;2.42;;;;;;;;;;4963139;28;20030;-83
2023/05/31 05:36:57;;;;;;;6.93;2.90;;;;;;;;;;4979612;28;20081;-83
2023/05/31 05:39:23;;;;;;;8.80;2.53;;;;;;;;;;4979559;28;20037;-82
2023/05/31 05:41:49;;;;;;;8.73;2.80;;;;;;;;;;4962717;28;20062;-84
2023/05/31 05:44:15;;;;;;;8.75;2.38;;;;;;;;;;4943565;28;20505;-82
2023/05/31 05:46:40;;;;;;;10.50;2.50;;;;;;;;;;4972517;28;20034;-82
2023/05/31 05:49:06;;;;;;;10.98;2.38;;;;;;;;;;4961953;28;20030;-83
2023/05/31 05:51:32;;;;;;;5.72;2.65;;;;;;;;;;4945735;28;20027;-81
2023/05/31 05:54:03;;;;;;;8.90;2.25;;;;;;;;;;4962171;28;20175;-81
2023/05/31 05:56:28;;;;;;;7.97;2.25;;;;;;;;;;4977964;28;20031;-82
2023/05/31 05:58:57;;;;;;;;;;;;;;;;;;4977844;28;20039;-83
2023/05/31 06:01:41;;;;;;;14.73;3.95;;;;;;;;;;5001379;22;19922;-80
2023/05/31 06:04:09;;;;;;;4.70;2.00;;;;;;;;;;4974359;28;20030;-80
2023/05/31 06:06:35;;;;;;;9.50;2.50;;;;;;;;;;4947012;28;20401;-80
2023/05/31 06:09:01;;;;;;;7.90;2.47;;;;;;;;;;4968819;28;20480;-79
2023/05/31 06:11:26;;;;;;;6.10;2.40;;;;;;;;;;4969493;28;20034;-79
2023/05/31 06:13:56;;;;;;;10.85;2.50;;;;;;;;;;4953429;28;20393;-80
2023/05/31 06:16:22;;;;;;;11.07;2.65;;;;;;;;;;4973331;28;20033;-79
2023/05/31 06:18:48;;;;;;;7.55;2.58;;;;;;;;;;4964015;28;20034;-78
2023/05/31 06:21:14;;;;;;;11.38;2.55;;;;;;;;;;4950017;28;20563;-79
2023/05/31 06:23:39;;;;;;;4.32;1.98;;;;;;;;;;4954816;28;20109;-78
2023/05/31 06:26:06;;;;;;;7.30;2.20;;;;;;;;;;4944660;28;20073;-80
2023/05/31 06:28:32;;;;;;;10.50;3.40;;;;;;;;;;4952747;29;20484;-79
2023/05/31 06:31:00;;;;;;;6.15;3.38;;;;;;;;;;4938445;28;20018;-79
2023/05/31 06:33:26;;;;;;;5.25;2.30;;;;;;;;;;4965033;28;20034;-79
2023/05/31 06:35:51;;;;;;;6.90;2.67;;;;;;;;;;4941634;29;20511;-80
2023/05/31 06:38:17;;;;;;;7.63;2.28;;;;;;;;;;4972523;28;20076;-78
2023/05/31 06:40:45;;;;;;;6.38;2.25;;;;;;;;;;4964585;28;20034;-78
2023/05/31 06:43:11;;;;;;;7.60;1.88;;;;;;;;;;4968030;28;20492;-79
2023/05/31 06:45:55;;;;;;;10.18;2.67;;;;;;;;;;4975315;28;20046;-80
2023/05/31 06:48:20;;;;;;;7.28;2.60;;;;;;;;;;4977583;28;20399;-79
2023/05/31 06:51:07;;;;;;;6.25;2.20;;;;;;;;;;4964261;28;20039;-78
2023/05/31 06:54:11;;;;;;;6.65;2.53;;;;;;;;;;4978901;28;20514;-80
2023/05/31 06:56:37;;;;;;;6.22;2.00;;;;;;;;;;4963773;28;20058;-79
2023/05/31 06:59:02;;;;;;;7.97;2.42;;;;;;;;;;4968933;28;20050;-80
2023/05/31 07:01:28;;;;;;;9.07;2.20;;;;;;;;;;4957078;28;20026;-78
2023/05/31 07:03:54;;;;;;;6.97;2.30;;;;;;;;;;4947388;28;20067;-79
2023/05/31 07:06:20;;;;;;;4.68;2.13;;;;;;;;;;4973385;28;20019;-79
2023/05/31 07:08:46;;;;;;;10.48;4.28;;;;;;;;;;4963086;28;20391;-79
2023/05/31 07:11:32;;;;;;;8.25;3.25;;;;;;;;;;4980003;28;20058;-79
2023/05/31 07:14:02;;;;;;;5.88;2.78;;;;;;;;;;4972202;28;20491;-79
2023/05/31 07:16:28;;;;;;;6.80;2.35;;;;;;;;;;4945207;28;20023;-79
2023/05/31 07:18:55;;;;;;;8.20;2.63;;;;;;;;;;4968206;28;20109;-79
2023/05/31 07:21:22;;;;;;;7.95;2.38;;;;;;;;;;4984483;28;20127;-78
2023/05/31 07:23:48;;;;;;;11.23;2.40;;;;;;;;;;4980159;28;20480;-79
2023/05/31 07:26:15;;;;;;;5.57;2.10;;;;;;;;;;4974895;28;20538;-80
2023/05/31 07:28:41;;;;;;;8.38;2.10;;;;;;;;;;4962727;28;20030;-78
2023/05/31 07:31:07;;;;;;;7.10;2.33;;;;;;;;;;4958295;28;20069;-78
2023/05/31 07:33:32;;;;;;;13.43;2.20;;;;;;;;;;4943304;29;20187;-79
2023/05/31 07:35:59;;;;;;;8.80;2.60;;;;;;;;;;4986168;28;20487;-78
2023/05/31 07:38:24;;;;;;;7.50;2.50;;;;;;;;;;4959602;28;20511;-79
2023/05/31 07:40:50;;;;;;;7.95;2.03;;;;;;;;;;4985645;28;20033;-78
2023/05/31 07:43:16;;;;;;;8.40;2.40;;;;;;;;;;4966644;28;20042;-80
2023/05/31 07:45:41;;;;;;;8.15;2.70;;;;;;;;;;4973748;28;20061;-77
2023/05/31 07:48:07;;;;;;;6.35;2.22;;;;;;;;;;4959367;28;20027;-80
2023/05/31 07:50:33;;;;;;;9.48;2.45;;;;;;;;;;4971391;28;20542;-80
2023/05/31 07:52:58;;;;;;;13.30;2.78;;;;;;;;;;4933607;28;20088;-78
2023/05/31 07:55:25;;;;;;;8.95;2.40;;;;;;;;;;4952809;28;20082;-78
2023/05/31 07:57:50;;;;;;;4.82;2.20;;;;;;;;;;4969922;28;20034;-79
2023/05/31 08:00:16;;;;;;;11.75;3.13;;;;;;;;;;4980339;28;20033;-80
2023/05/31 08:02:42;;;;;;;13.55;2.67;;;;;;;;;;4971521;28;20038;-78
2023/05/31 08:05:08;;;;;;;5.05;2.05;;;;;;;;;;4958732;28;20506;-79
2023/05/31 08:07:34;;;;;;;13.32;2.92;;;;;;;;;;4977712;28;20046;-79
2023/05/31 08:09:59;;;;;;;6.82;2.25;;;;;;;;;;4965105;28;20054;-79
2023/05/31 08:12:25;;;;;;;11.43;2.60;;;;;;;;;;4963321;28;20026;-76
2023/05/31 08:14:51;;;;;;;9.60;2.75;;;;;;;;;;4969136;28;20049;-80
2023/05/31 08:17:16;;;;;;;13.25;2.50;;;;;;;;;;4933324;28;20039;-79
2023/05/31 08:19:42;;;;;;;6.88;2.50;;;;;;;;;;4986926;28;20377;-78
2023/05/31 08:22:08;;;;;;;6.10;1.98;;;;;;;;;;4942295;28;20104;-79
2023/05/31 08:24:33;;;;;;;7.38;2.42;;;;;;;;;;4987100;28;20037;-79
2023/05/31 08:26:59;;;;;;;7.50;2.38;;;;;;;;;;4980804;28;20396;-79
2023/05/31 08:29:25;;;;;;;7.35;2.30;;;;;;;;;;4963201;28;20462;-79
2023/05/31 08:31:50;;;;;;;5.63;2.25;;;;;;;;;;4988085;28;20037;-79
2023/05/31 08:34:16;;;;;;;9.13;2.25;;;;;;;;;;4976165;28;20074;-79
2023/05/31 08:36:41;;;;;;;6.43;2.38;;;;;;;;;;4985782;28;20041;-78
2023/05/31 08:39:08;;;;;;;4.90;2.15;;;;;;;;;;4956566;28;20378;-80
2023/05/31 08:41:56;;;;;;;5.65;2.03;;;;;;;;;;4946292;28;20038;-79
2023/05/31 08:44:22;;;;;;;8.82;2.78;;;;;;;;;;4946380;28;20479;-80
2023/05/31 08:46:48;;;;;;;6.43;2.25;;;;;;;;;;4990134;28;20023;-80
2023/05/31 08:49:15;;;;;;;5.93;2.28;;;;;;;;;;4986050;28;20041;-79
2023/05/31 08:51:43;;;;;;;7.37;2.23;;;;;;;;;;4981126;28;20095;-80
2023/05/31 08:54:09;;;;;;;7.93;2.20;;;;;;;;;;4957209;28;20257;-79
2023/05/31 08:56:36;;;;;;;7.28;1.98;;;;;;;;;;4977571;28;20106;-78
2023/05/31 08:59:03;;;;;;;50.05;30.33;;;;;;;;;;4984949;28;20030;-80
2023/05/31 09:01:29;;;;;;;7.95;2.65;;;;;;;;;;4933903;28;20033;-79
2023/05/31 09:03:55;;;;;;;6.10;1.88;;;;;;;;;;4960619;28;20076;-81
2023/05/31 09:06:21;;;;;;;4.18;1.90;;;;;;;;;;4949985;28;20053;-81
2023/05/31 09:08:47;;;;;;;6.40;2.20;;;;;;;;;;4979263;28;20480;-81
2023/05/31 09:11:13;;;;;;;7.85;2.28;;;;;;;;;;4967257;28;20027;-81
2023/05/31 09:13:38;;;;;;;4.47;2.10;;;;;;;;;;4964632;28;20062;-82
2023/05/31 09:16:04;;;;;;;10.43;2.40;;;;;;;;;;4943471;28;20069;-82
2023/05/31 09:18:36;;;;;;;7.72;2.33;;;;;;;;;;4981139;28;20542;-77
2023/05/31 09:21:06;;;;;;;6.20;2.00;;;;;;;;;;4984343;28;20034;-79
2023/05/31 09:23:32;;;;;;;9.20;2.38;;;;;;;;;;4934060;28;20110;-78
2023/05/31 09:25:57;;;;;;;6.90;1.90;;;;;;;;;;4993409;28;20034;-79
2023/05/31 09:28:23;;;;;;;5.25;1.75;;;;;;;;;;4931696;28;20109;-77
2023/05/31 09:31:03;;;;;;;5.03;1.70;;;;;;;;;;4973513;28;20026;-80
2023/05/31 09:33:42;;;;;;;8.20;2.17;;;;;;;;;;4980251;28;20030;-79
2023/05/31 09:36:08;;;;;;;9.93;2.17;;;;;;;;;;4987026;28;20062;-78
2023/05/31 09:38:34;;;;;;;6.82;1.92;;;;;;;;;;4988925;28;20034;-79
2023/05/31 09:41:18;;;;;;;9.57;2.30;;;;;;;;;;4982078;28;20030;-79
2023/05/31 09:43:45;;;;;;;9.10;2.47;;;;;;;;;;4983923;28;20038;-79
2023/05/31 09:46:11;;;;;;;6.38;1.80;;;;;;;;;;4991135;28;20511;-79
2023/05/31 09:48:36;;;;;;;7.82;2.03;;;;;;;;;;4979409;28;20050;-79
2023/05/31 09:51:05;;;;;;;7.47;1.90;;;;;;;;;;4980471;28;20488;-79
2023/05/31 09:53:31;;;;;;;6.90;1.73;;;;;;;;;;4975163;28;20027;-79
2023/05/31 09:55:57;;;;;;;7.95;1.80;;;;;;;;;;4984637;28;20118;-80
2023/05/31 09:58:32;;;;;;;7.95;1.90;;;;;;;;;;4960226;28;20030;-79
2023/05/31 10:00:58;;;;;;;7.00;1.70;;;;;;;;;;4986469;28;20106;-79
2023/05/31 10:03:24;;;;;;;4.18;1.40;;;;;;;;;;4976107;28;20126;-77
2023/05/31 10:05:50;;;;;;;5.18;1.70;;;;;;;;;;4975180;28;20145;-77
2023/05/31 10:08:16;;;;;;;7.18;1.58;;;;;;;;;;4958578;28;20041;-79
2023/05/31 10:10:43;;;;;;;4.03;1.70;;;;;;;;;;4974100;28;20027;-80
2023/05/31 10:13:12;;;;;;;10.10;2.00;;;;;;;;;;4958794;28;20066;-79
2023/05/31 10:15:41;;;;;;;5.72;2.13;;;;;;;;;;4962031;28;20033;-79
2023/05/31 10:18:10;;;;;;;8.82;1.67;;;;;;;;;;4960178;28;20034;-78
2023/05/31 10:20:40;;;;;;;7.80;1.70;;;;;;;;;;4946610;28;20034;-79
2023/05/31 10:23:09;;;;;;;8.80;1.75;;;;;;;;;;4984315;28;20129;-79
2023/05/31 10:25:35;;;;;;;;;;;;;;;;;;4970975;28;20034;-80
2023/05/31 10:28:05;;;;;;;7.03;1.70;;;;;;;;;;4978131;28;19949;-79
2023/05/31 10:30:34;;;;;;;7.95;1.80;;;;;;;;;;4989638;28;20014;-77
2023/05/31 10:33:03;;;;;;;3.92;2.10;;;;;;;;;;4966042;28;20542;-78
2023/05/31 10:35:37;;;;;;;5.85;2.05;;;;;;;;;;4997253;28;20109;-82
2023/05/31 10:38:06;;;;;;;7.32;1.80;;;;;;;;;;4960089;28;20061;-83
2023/05/31 10:40:46;;;;;;;5.43;1.80;;;;;;;;;;4941495;28;20460;-82
2023/05/31 10:43:17;;;;;;;5.65;1.50;;;;;;;;;;4980565;28;20041;-83
2023/05/31 10:45:45;;;;;;;6.38;2.03;;;;;;;;;;4973223;28;20034;-83
2023/05/31 10:48:10;;;;;;;;;;;;;;;;;;4997040;28;20053;-83
2023/05/31 10:50:55;;;;;;;6.45;1.73;;;;;;;;;;4992670;28;19910;-82
2023/05/31 10:53:21;;;;;;;5.38;1.83;;;;;;;;;;4976560;28;20035;-82
2023/05/31 10:55:47;;;;;;;6.25;2.85;;;;;;;;;;4986116;28;20038;-81
2023/05/31 10:58:29;;;;;;;3.63;2.13;;;;;;;;;;4988391;28;20436;-81
2023/05/31 11:00:55;;;;;;;7.97;2.03;;;;;;;;;;4979423;28;20039;-83
2023/05/31 11:03:23;;;;;;;5.63;2.55;;;;;;;;;;4956671;28;20148;-82
2023/05/31 11:05:56;;;;;;;6.03;1.65;;;;;;;;;;4945850;28;20089;-82
2023/05/31 11:11:41;;;;;;;7.57;2.90;;;;;;;;;;4975880;28;20039;-82
2023/05/31 11:14:27;;;;;;;12.20;6.25;;;;;;;;;;4975254;28;20042;-82
2023/05/31 11:17:06;;;;;;;11.50;5.15;;;;;;;;;;4982007;28;20035;-81
2023/05/31 11:19:32;;;;;;;11.43;3.97;;;;;;;;;;4980558;28;20026;-82
2023/05/31 11:22:18;;;;;;;7.20;3.38;;;;;;;;;;4989341;28;20041;-82
2023/05/31 11:24:52;;;;;;;7.05;3.03;;;;;;;;;;4979268;28;20104;-82
2023/05/31 11:27:19;;;;;;;5.32;2.10;;;;;;;;;;4965252;28;20035;-82
2023/05/31 11:29:46;;;;;;;7.38;2.80;;;;;;;;;;4987923;28;20553;-83
2023/05/31 11:32:12;;;;;;;7.70;3.40;;;;;;;;;;4959554;28;20027;-82
2023/05/31 11:34:54;;;;;;;11.35;4.10;;;;;;;;;;4954335;28;20506;-82
2023/05/31 11:37:21;;;;;;;4.40;2.17;;;;;;;;;;4951078;28;20121;-82
2023/05/31 11:39:47;;;;;;;12.77;5.28;;;;;;;;;;4971509;28;20451;-81
2023/05/31 11:42:13;;;;;;;8.13;2.47;;;;;;;;;;4958967;28;20029;-77
2023/05/31 11:44:43;;;;;;;4.68;1.80;;;;;;;;;;4968945;28;20054;-78
2023/05/31 11:47:19;;;;;;;6.28;2.30;;;;;;;;;;4982311;28;20023;-78
2023/05/31 11:49:45;;;;;;;9.30;1.80;;;;;;;;;;4970095;28;20084;-78
2023/05/31 11:52:17;;;;;;;5.57;1.63;;;;;;;;;;4959077;28;20030;-78
2023/05/31 11:54:44;;;;;;;5.00;1.70;;;;;;;;;;4962557;28;20018;-78
2023/05/31 11:57:12;;;;;;;7.90;2.15;;;;;;;;;;4970064;28;20109;-82
2023/05/31 11:59:43;;;;;;;7.10;1.77;;;;;;;;;;4962699;28;20031;-81
2023/05/31 12:02:44;;;;;;;4.22;1.52;;;;;;;;;;5004420;23;20108;-81
2023/05/31 12:05:13;;;;;;;5.00;2.13;;;;;;;;;;5003905;28;20474;-83
2023/05/31 12:07:40;;;;;;;8.52;2.08;;;;;;;;;;5018294;28;20050;-81
2023/05/31 12:10:07;;;;;;;7.47;1.90;;;;;;;;;;5028122;28;20363;-80
2023/05/31 12:12:32;;;;;;;11.85;2.70;;;;;;;;;;5004780;28;20088;-81
2023/05/31 12:14:58;;;;;;;4.85;1.98;;;;;;;;;;4970127;28;20029;-82
2023/05/31 12:17:23;;;;;;;5.22;2.00;;;;;;;;;;4999460;28;20479;-81
2023/05/31 12:19:49;;;;;;;5.18;1.50;;;;;;;;;;5006790;28;20041;-80
2023/05/31 12:22:15;;;;;;;8.98;2.95;;;;;;;;;;4995197;28;20041;-81
2023/05/31 12:24:50;;;;;;;6.68;1.80;;;;;;;;;;4988410;28;20488;-80
2023/05/31 12:27:16;;;;;;;6.10;1.73;;;;;;;;;;4985936;28;20038;-82
2023/05/31 12:29:41;;;;;;;6.15;2.10;;;;;;;;;;4980249;28;20054;-82
2023/05/31 12:32:07;;;;;;;5.82;2.10;;;;;;;;;;4990989;28;20533;-83
2023/05/31 12:34:35;;;;;;;4.75;2.03;;;;;;;;;;4981587;28;20017;-83
2023/05/31 12:37:08;;;;;;;5.65;2.40;;;;;;;;;;4989085;28;20030;-82
2023/05/31 12:39:33;;;;;;;4.22;1.90;;;;;;;;;;4990327;28;20042;-81
2023/05/31 12:42:00;;;;;;;4.57;2.08;;;;;;;;;;4946970;28;20030;-82
2023/05/31 12:44:26;;;;;;;4.97;2.17;;;;;;;;;;4974583;28;20106;-81
2023/05/31 12:46:57;;;;;;;7.53;2.85;;;;;;;;;;4981285;28;20477;-82
2023/05/31 12:49:27;;;;;;;4.72;1.80;;;;;;;;;;4983625;28;20037;-80
2023/05/31 12:52:04;;;;;;;6.40;1.83;;;;;;;;;;4978207;28;20157;-80
2023/05/31 12:54:30;;;;;;;6.90;2.50;;;;;;;;;;4981013;28;20033;-82
2023/05/31 12:56:57;;;;;;;5.53;2.03;;;;;;;;;;4960309;28;20026;-81
2023/05/31 12:59:23;;;;;;;8.70;2.13;;;;;;;;;;5004495;28;20026;-81
2023/05/31 13:01:48;;;;;;;7.60;2.20;;;;;;;;;;4978828;28;20041;-82
2023/05/31 13:04:14;;;;;;;6.82;1.88;;;;;;;;;;4990147;28;20033;-82
2023/05/31 13:06:40;;;;;;;7.15;2.22;;;;;;;;;;4980447;28;20426;-82
2023/05/31 13:09:06;;;;;;;5.03;1.83;;;;;;;;;;4975776;28;20034;-82
2023/05/31 13:11:33;;;;;;;4.90;1.90;;;;;;;;;;4949056;28;20037;-82
2023/05/31 13:13:59;;;;;;;5.82;2.30;;;;;;;;;;4990492;28;20057;-81
2023/05/31 13:16:24;;;;;;;4.20;1.80;;;;;;;;;;4954432;28;20513;-80
2023/05/31 13:18:50;;;;;;;6.05;1.98;;;;;;;;;;4986189;28;20566;-82
2023/05/31 13:21:15;;;;;;;5.90;1.70;;;;;;;;;;4985975;28;20030;-80
2023/05/31 13:23:41;;;;;;;6.65;2.10;;;;;;;;;;4997475;28;20117;-80
2023/05/31 13:26:06;;;;;;;4.85;2.00;;;;;;;;;;4971238;28;20027;-82
2023/05/31 13:28:32;;;;;;;4.78;1.70;;;;;;;;;;4990302;28;20106;-82
2023/05/31 13:30:58;;;;;;;6.90;2.03;;;;;;;;;;4971235;28;20041;-79
2023/05/31 13:33:26;;;;;;;135.18;121.20;;;;;;;;;;4990040;28;20432;-84
2023/05/31 13:35:51;;;;;;;18.08;13.90;;;;;;;;;;5014158;28;20038;-84
2023/05/31 13:38:17;;;;;;;23.02;19.77;;;;;;;;;;5003012;28;20045;-80
2023/05/31 13:40:43;;;;;;;13.70;10.35;;;;;;;;;;4994631;28;20684;-84
2023/05/31 13:43:09;;;;;;;14.32;10.63;;;;;;;;;;4958258;28;20026;-81
2023/05/31 13:45:34;;;;;;;14.52;9.13;;;;;;;;;;5016139;28;20109;-80
2023/05/31 13:48:00;;;;;;;8.45;6.43;;;;;;;;;;5009529;28;20026;-82
2023/05/31 13:50:26;;;;;;;9.70;7.03;;;;;;;;;;5004923;28;20379;-81
2023/05/31 13:52:51;;;;;;;6.22;4.28;;;;;;;;;;5011124;28;20376;-81
2023/05/31 13:55:17;;;;;;;6.60;4.10;;;;;;;;;;5006063;28;20039;-81
2023/05/31 13:57:42;;;;;;;6.78;3.00;;;;;;;;;;5003608;28;20034;-80
2023/05/31 14:00:08;;;;;;;7.60;2.50;;;;;;;;;;4992654;28;20067;-80
2023/05/31 14:02:39;;;;;;;5.82;2.20;;;;;;;;;;4981695;28;20037;-82
2023/05/31 14:05:05;;;;;;;5.70;2.40;;;;;;;;;;5004963;28;20031;-85
2023/05/31 14:07:30;;;;;;;5.00;2.50;;;;;;;;;;5006893;28;20372;-80
2023/05/31 14:09:56;;;;;;;5.28;2.30;;;;;;;;;;4998120;28;20057;-81
2023/05/31 14:12:22;;;;;;;5.40;2.60;;;;;;;;;;5010886;28;20022;-84
2023/05/31 14:14:48;;;;;;;5.82;2.20;;;;;;;;;;5001984;28;20056;-84
2023/05/31 14:17:14;;;;;;;5.38;2.28;;;;;;;;;;4986385;28;20429;-80
2023/05/31 14:19:39;;;;;;;4.82;1.98;;;;;;;;;;4995002;28;20045;-82
2023/05/31 14:22:05;;;;;;;6.75;2.25;;;;;;;;;;5005250;28;20037;-81
2023/05/31 14:24:30;;;;;;;5.75;2.38;;;;;;;;;;5009420;28;20053;-81
2023/05/31 14:26:56;;;;;;;5.47;2.50;;;;;;;;;;5002200;28;20471;-80
2023/05/31 14:29:22;;;;;;;7.57;3.28;;;;;;;;;;4985015;28;20022;-80
2023/05/31 14:31:47;;;;;;;7.97;2.80;;;;;;;;;;5009423;28;20081;-83
2023/05/31 14:34:15;;;;;;;8.73;3.38;;;;;;;;;;4997201;28;20122;-81
2023/05/31 14:36:41;;;;;;;8.70;3.40;;;;;;;;;;5007612;28;20029;-80
2023/05/31 14:39:06;;;;;;;5.60;2.70;;;;;;;;;;4986161;28;20037;-81
2023/05/31 14:41:32;;;;;;;8.23;3.20;;;;;;;;;;4982252;28;20105;-81
2023/05/31 14:43:58;;;;;;;6.63;3.17;;;;;;;;;;4960394;28;20042;-85
2023/05/31 14:46:23;;;;;;;9.60;3.10;;;;;;;;;;4933296;28;20022;-78
2023/05/31 14:48:49;;;;;;;7.22;2.80;;;;;;;;;;4982230;28;20029;-81
2023/05/31 14:51:14;;;;;;;7.00;3.30;;;;;;;;;;5002590;28;20029;-80